createdAt,value
2019-02-16T00:01:39.705Z,3.54
2019-02-16T00:07:34.698Z,2.42
2019-02-16T00:13:29.746Z,3.19
2019-02-16T00:19:24.708Z,2.33
2019-02-16T00:25:19.718Z,2.13
2019-02-16T00:31:14.714Z,2.25
2019-02-16T00:37:09.709Z,4.37
2019-02-16T00:43:04.758Z,5.16
2019-02-16T00:48:59.699Z,5.93
2019-02-16T00:54:54.753Z,5.79
2019-02-16T01:00:49.716Z,5.43
2019-02-16T01:06:44.748Z,5.38
2019-02-16T01:12:39.732Z,5.3
2019-02-16T01:18:34.732Z,4.92
2019-02-16T01:24:29.757Z,5.36
2019-02-16T01:30:24.773Z,5.61
2019-02-16T01:36:19.738Z,4.11
2019-02-16T01:42:14.855Z,3.37
2019-02-16T01:48:09.795Z,4.4
2019-02-16T01:54:04.800Z,4.76
2019-02-16T01:59:59.789Z,5.53
2019-02-16T02:05:54.766Z,5.12
2019-02-16T02:11:49.810Z,4.52
2019-02-16T02:17:44.813Z,4.46
2019-02-16T02:23:39.769Z,4.36
2019-02-16T02:29:34.770Z,3.82
2019-02-16T02:35:29.799Z,6.39
2019-02-16T02:41:24.776Z,5.4
2019-02-16T02:47:19.865Z,5.81
2019-02-16T02:53:14.804Z,5.3
2019-02-16T02:59:09.786Z,5.71
2019-02-16T03:05:04.831Z,5.35
2019-02-16T03:10:59.807Z,5.8
2019-02-16T03:16:54.827Z,5.59
2019-02-16T03:22:49.864Z,5.14
2019-02-16T03:28:44.827Z,4.62
2019-02-16T03:34:39.806Z,4.72
2019-02-16T03:40:34.827Z,4.77
2019-02-16T03:46:29.817Z,4.86
2019-02-16T03:52:24.864Z,4.8
2019-02-16T03:58:19.826Z,4.23
2019-02-16T04:04:14.911Z,4.71
2019-02-16T04:10:09.883Z,5.57
2019-02-16T04:16:04.835Z,4.61
2019-02-16T04:21:59.886Z,4.63
2019-02-16T04:27:54.890Z,5.28
2019-02-16T04:33:49.851Z,5.57
2019-02-16T04:39:44.860Z,4.97
2019-02-16T04:45:39.869Z,4.99
2019-02-16T04:51:34.863Z,6.03
2019-02-16T04:57:29.878Z,6.18
2019-02-16T05:03:24.872Z,4.96
2019-02-16T05:09:19.874Z,4.95
2019-02-16T05:15:14.871Z,4.74
2019-02-16T05:21:09.872Z,5.16
2019-02-16T05:27:04.875Z,4.47
2019-02-16T05:32:59.907Z,5
2019-02-16T05:38:54.900Z,3.97
2019-02-16T05:44:49.891Z,5.64
2019-02-16T05:50:44.879Z,5.05
2019-02-16T05:56:39.961Z,5.43
2019-02-16T06:02:34.952Z,4.68
2019-02-16T06:08:29.899Z,5.2
2019-02-16T06:14:24.907Z,4.42
2019-02-16T06:20:19.939Z,5.33
2019-02-16T06:26:14.902Z,5.37
2019-02-16T06:32:09.925Z,5.45
2019-02-16T06:38:04.910Z,6.46
2019-02-16T06:43:59.974Z,6.25
2019-02-16T06:49:54.937Z,5.9
2019-02-16T06:55:49.929Z,5.68
2019-02-16T07:01:44.934Z,6.76
2019-02-16T07:07:39.931Z,6.01
2019-02-16T07:13:34.969Z,7.05
2019-02-16T07:19:29.935Z,7.2
2019-02-16T07:25:24.960Z,5.87
2019-02-16T07:31:19.957Z,6.77
2019-02-16T07:37:14.960Z,6.73
2019-02-16T07:43:10.002Z,6.78
2019-02-16T07:49:04.942Z,7.12
2019-02-16T07:54:59.982Z,7.67
2019-02-16T08:00:54.947Z,7.37
2019-02-16T08:06:49.973Z,8.76
2019-02-16T08:12:44.956Z,9.14
2019-02-16T08:18:39.964Z,7.83
2019-02-16T08:24:35.011Z,7.19
2019-02-16T08:30:29.981Z,6.99
2019-02-16T08:36:24.983Z,7.4
2019-02-16T08:42:20.001Z,8.34
2019-02-16T08:48:14.979Z,7.51
2019-02-16T08:54:09.986Z,7.65
2019-02-16T09:00:05.018Z,8.93
2019-02-16T09:05:59.990Z,7.48
2019-02-16T09:11:55.003Z,7.74
2019-02-16T09:17:50.013Z,8.28
2019-02-16T09:23:45.027Z,6.55
2019-02-16T09:29:40.008Z,6.39
2019-02-16T09:35:35.062Z,4.62
2019-02-16T09:41:30.029Z,5.3
2019-02-16T09:47:25.055Z,4.5
2019-02-16T09:53:20.022Z,5.31
2019-02-16T09:59:15.044Z,4.05
2019-02-16T10:05:10.022Z,6.89
2019-02-16T10:11:05.043Z,4.49
2019-02-16T10:17:00.074Z,4.44
2019-02-16T10:22:55.054Z,3.8
2019-02-16T10:28:50.072Z,3.44
2019-02-16T10:34:45.033Z,4.52
2019-02-16T10:40:40.091Z,4.67
2019-02-16T10:46:35.040Z,3.62
2019-02-16T10:52:30.064Z,4.21
2019-02-16T10:58:25.138Z,5.09
2019-02-16T11:04:20.069Z,5.12
2019-02-16T11:10:15.114Z,4.2
2019-02-16T11:16:10.063Z,4.6
2019-02-16T11:22:05.114Z,3.98
2019-02-16T11:28:00.063Z,3.85
2019-02-16T11:33:55.098Z,3.88
2019-02-16T11:39:50.146Z,3.89
2019-02-16T11:45:45.082Z,3.06
2019-02-16T11:51:40.148Z,3.93
2019-02-16T11:57:35.098Z,4.5
2019-02-16T12:03:30.122Z,4.29
2019-02-16T12:09:25.097Z,3.66
2019-02-16T12:15:20.112Z,4.13
2019-02-16T12:21:15.142Z,3.86
2019-02-16T12:27:10.131Z,3.81
2019-02-16T12:33:05.150Z,4.07
2019-02-16T12:39:04.731Z,3.66
2019-02-16T12:44:55.136Z,3.96
2019-02-16T12:50:50.144Z,3.31
2019-02-16T12:56:45.131Z,3.59
2019-02-16T13:02:40.150Z,3.86
2019-02-16T13:08:35.145Z,3.54
2019-02-16T13:14:30.132Z,3.24
2019-02-16T13:20:25.216Z,3.53
2019-02-16T13:26:20.141Z,3.95
2019-02-16T13:32:15.195Z,3.28
2019-02-16T13:38:10.169Z,3.38
2019-02-16T13:44:05.189Z,3.12
2019-02-16T13:50:00.314Z,3.1
2019-02-16T13:55:55.183Z,3.17
2019-02-16T14:01:50.231Z,2.84
2019-02-16T14:07:45.202Z,2.5
2019-02-16T14:13:40.211Z,2.57
2019-02-16T14:19:35.176Z,2.54
2019-02-16T14:25:30.202Z,2.58
2019-02-16T14:31:28.343Z,2.56
2019-02-16T14:37:20.231Z,2.85
2019-02-16T14:43:15.191Z,3.09
2019-02-16T14:49:10.204Z,2.99
2019-02-16T14:55:05.224Z,3.42
2019-02-16T15:01:00.220Z,3.34
2019-02-16T15:06:55.221Z,3.61
2019-02-16T15:12:50.223Z,2.6
2019-02-16T15:18:45.234Z,2.73
2019-02-16T15:24:40.260Z,3.49
2019-02-16T15:30:35.230Z,3.12
2019-02-16T15:36:30.231Z,3.9
2019-02-16T15:42:25.255Z,4.17
2019-02-16T15:48:20.267Z,4.03
2019-02-16T15:54:15.257Z,3.87
2019-02-16T16:00:10.289Z,4.88
2019-02-16T16:06:05.264Z,4.5
2019-02-16T16:12:00.253Z,5.39
2019-02-16T16:17:55.265Z,8.82
2019-02-16T16:23:50.267Z,9.88
2019-02-16T16:29:45.255Z,11.95
2019-02-16T16:35:40.295Z,5.94
2019-02-16T16:41:35.327Z,6.34
2019-02-16T16:47:30.291Z,7.86
2019-02-16T16:53:25.310Z,7.57
2019-02-16T16:59:20.304Z,15.47
2019-02-16T17:05:15.304Z,26.49
2019-02-16T17:11:10.315Z,13.25
2019-02-16T17:17:05.342Z,11.47
2019-02-16T17:23:00.400Z,9.31
2019-02-16T17:28:55.334Z,9.32
2019-02-16T17:34:50.346Z,9.21
2019-02-16T17:40:45.321Z,8.51
2019-02-16T17:46:40.330Z,9.62
2019-02-16T17:52:35.328Z,9.77
2019-02-16T17:58:30.306Z,9.33
2019-02-16T18:04:25.334Z,9.95
2019-02-16T18:10:20.322Z,9.48
2019-02-16T18:16:15.333Z,9.03
2019-02-16T18:22:10.370Z,8.45
2019-02-16T18:28:05.403Z,8.74
2019-02-16T18:34:00.368Z,9.49
2019-02-16T18:39:55.369Z,9.69
2019-02-16T18:45:50.399Z,9.05
2019-02-16T18:51:45.405Z,9.73
2019-02-16T18:57:40.354Z,9.72
2019-02-16T19:03:35.359Z,9.6
2019-02-16T19:09:30.384Z,9.97
2019-02-16T19:15:25.416Z,9.81
2019-02-16T19:21:20.390Z,10.93
2019-02-16T19:27:16.799Z,11.95
2019-02-16T19:33:10.426Z,12.55
2019-02-16T19:39:05.413Z,11.75
2019-02-16T19:45:00.384Z,14.26
2019-02-16T19:50:55.411Z,12.7
2019-02-16T19:56:50.397Z,12.35
2019-02-16T20:02:45.392Z,13.16
2019-02-16T20:08:40.416Z,12.56
2019-02-16T20:14:35.416Z,14.04
2019-02-16T20:20:30.400Z,12.87
2019-02-16T20:26:25.417Z,16.69
2019-02-16T20:32:20.455Z,16.34
2019-02-16T20:38:15.419Z,14.75
2019-02-16T20:44:10.424Z,15.92
2019-02-16T20:50:05.433Z,16.66
2019-02-16T20:56:00.430Z,15.87
2019-02-16T21:01:55.478Z,15.93
2019-02-16T21:07:50.531Z,17.11
2019-02-16T21:13:45.433Z,16.97
2019-02-16T21:19:40.441Z,16.2
2019-02-16T21:25:35.438Z,14.85
2019-02-16T21:31:30.471Z,17.23
2019-02-16T21:37:25.439Z,17.04
2019-02-16T21:43:20.509Z,16.8
2019-02-16T21:49:15.455Z,19
2019-02-16T21:55:10.535Z,18.07
2019-02-16T22:01:05.488Z,18.26
2019-02-16T22:07:00.518Z,18.06
2019-02-16T22:12:55.482Z,18.27
2019-02-16T22:18:50.533Z,17.47
2019-02-16T22:24:45.515Z,16.67
2019-02-16T22:30:40.548Z,16.59
2019-02-16T22:36:35.477Z,16.13
2019-02-16T22:42:30.524Z,15.46
2019-02-16T22:48:25.489Z,15.83
2019-02-16T22:54:20.476Z,14.33
2019-02-16T23:00:15.533Z,13.9
2019-02-16T23:06:10.503Z,14.81
2019-02-16T23:12:05.512Z,16.09
2019-02-16T23:18:00.503Z,15.93
2019-02-16T23:23:55.525Z,15.33
2019-02-16T23:29:50.527Z,15.13
2019-02-16T23:35:45.533Z,15.24
2019-02-16T23:41:40.516Z,13.89
2019-02-16T23:47:35.533Z,12.74
2019-02-16T23:53:30.532Z,13.92
2019-02-16T23:59:25.548Z,15.7
